createdAt,value
2022-10-17T00:00:16.577Z,13.30
2022-10-17T00:02:43.154Z,13.30
2022-10-17T00:05:09.796Z,13.30
2022-10-17T00:07:36.391Z,13.30
2022-10-17T00:10:04.163Z,13.20
2022-10-17T00:12:30.780Z,13.20
2022-10-17T00:14:57.407Z,13.10
2022-10-17T00:17:24.157Z,13.20
2022-10-17T00:19:50.748Z,13.20
2022-10-17T00:22:17.359Z,13.10
2022-10-17T00:24:43.966Z,13.10
2022-10-17T00:27:10.571Z,13.10
2022-10-17T00:29:37.194Z,13.10
2022-10-17T00:32:03.908Z,13.10
2022-10-17T00:34:30.543Z,13.00
2022-10-17T00:36:57.656Z,13.00
2022-10-17T00:39:24.298Z,13.00
2022-10-17T00:41:51.107Z,13.00
2022-10-17T00:44:29.942Z,13.00
2022-10-17T00:46:58.247Z,13.00
2022-10-17T00:49:30.134Z,13.00
2022-10-17T00:52:00.952Z,13.00
2022-10-17T00:54:33.343Z,12.90
2022-10-17T00:57:00.199Z,12.90
2022-10-17T00:59:28.159Z,12.80
2022-10-17T01:02:05.859Z,12.80
2022-10-17T01:04:32.563Z,12.70
2022-10-17T01:06:59.159Z,12.70
2022-10-17T01:09:26.930Z,12.70
2022-10-17T01:12:17.131Z,12.60
2022-10-17T01:15:05.473Z,12.50
2022-10-17T01:18:22.150Z,12.50
2022-10-17T01:21:12.056Z,12.50
2022-10-17T01:23:41.370Z,12.50
2022-10-17T01:26:33.511Z,12.50
2022-10-17T01:29:11.911Z,12.50
2022-10-17T01:31:45.683Z,12.50
2022-10-17T01:34:21.771Z,12.50
2022-10-17T01:37:02.077Z,12.40
2022-10-17T01:39:54.569Z,12.30
2022-10-17T01:42:37.532Z,12.30
2022-10-17T01:45:14.387Z,12.30
2022-10-17T01:47:42.164Z,12.30
2022-10-17T01:50:19.808Z,12.20
2022-10-17T01:52:51.811Z,12.20
2022-10-17T01:55:29.618Z,12.20
2022-10-17T01:58:02.519Z,12.10
2022-10-17T02:00:30.820Z,12.10
2022-10-17T02:03:02.027Z,12.10
2022-10-17T02:05:33.424Z,12.00
2022-10-17T02:08:00.010Z,11.90
2022-10-17T02:10:51.217Z,12.00
2022-10-17T02:13:55.377Z,11.90
2022-10-17T02:16:50.426Z,11.90
2022-10-17T02:19:58.789Z,11.90
2022-10-17T02:22:39.531Z,11.90
2022-10-17T02:25:34.731Z,11.80
2022-10-17T02:28:21.523Z,11.80
2022-10-17T02:31:02.161Z,11.80
2022-10-17T02:33:34.354Z,11.80
2022-10-17T02:36:07.078Z,11.70
2022-10-17T02:38:35.164Z,11.80
2022-10-17T02:41:02.004Z,11.80
2022-10-17T02:43:28.954Z,11.70
2022-10-17T02:45:57.225Z,11.70
2022-10-17T02:48:47.378Z,11.70
2022-10-17T02:51:25.652Z,11.70
2022-10-17T02:54:06.116Z,11.80
2022-10-17T02:56:47.311Z,11.70
2022-10-17T02:59:17.615Z,11.70
2022-10-17T03:01:44.443Z,11.70
2022-10-17T03:04:13.467Z,11.70
2022-10-17T03:06:41.226Z,11.70
2022-10-17T03:09:07.972Z,11.70
2022-10-17T03:11:34.955Z,11.70
2022-10-17T03:14:01.651Z,11.70
2022-10-17T03:16:28.339Z,11.70
2022-10-17T03:18:54.975Z,11.60
2022-10-17T03:21:21.847Z,11.50
2022-10-17T03:23:48.513Z,11.50
2022-10-17T03:26:15.277Z,11.40
2022-10-17T03:28:41.941Z,11.40
2022-10-17T03:31:10.613Z,11.30
2022-10-17T03:33:37.547Z,11.40
2022-10-17T03:36:13.025Z,11.40
2022-10-17T03:38:39.975Z,11.30
2022-10-17T03:41:07.377Z,11.20
2022-10-17T03:43:34.351Z,11.20
2022-10-17T03:46:01.556Z,11.20
2022-10-17T03:48:29.776Z,11.10
2022-10-17T03:51:07.667Z,11.10
2022-10-17T03:53:34.745Z,11.10
2022-10-17T03:56:18.677Z,11.10
2022-10-17T03:58:45.537Z,11.10
2022-10-17T04:01:14.500Z,11.10
2022-10-17T04:03:41.839Z,11.10
2022-10-17T04:06:10.750Z,11.10
2022-10-17T04:08:37.348Z,11.10
2022-10-17T04:11:06.725Z,11.00
2022-10-17T04:13:33.908Z,11.00
2022-10-17T04:16:10.126Z,11.00
2022-10-17T04:18:36.683Z,11.00
2022-10-17T04:21:05.471Z,11.00
2022-10-17T04:23:32.129Z,11.00
2022-10-17T04:26:00.397Z,11.00
2022-10-17T04:28:28.023Z,10.90
2022-10-17T04:30:59.405Z,10.90
2022-10-17T04:33:26.410Z,10.90
2022-10-17T04:36:03.951Z,10.80
2022-10-17T04:38:31.477Z,10.80
2022-10-17T04:40:59.316Z,10.80
2022-10-17T04:43:25.898Z,10.80
2022-10-17T04:45:52.449Z,10.80
2022-10-17T04:48:19.125Z,10.70
2022-10-17T04:50:56.548Z,10.70
2022-10-17T04:53:24.575Z,10.70
2022-10-17T04:55:51.435Z,10.70
2022-10-17T04:58:18.049Z,10.70
2022-10-17T05:00:44.831Z,10.70
2022-10-17T05:03:11.909Z,10.70
2022-10-17T05:05:39.826Z,10.60
2022-10-17T05:08:07.783Z,10.60
2022-10-17T05:10:42.815Z,10.60
2022-10-17T05:13:10.535Z,10.60
2022-10-17T05:15:37.790Z,10.60
2022-10-17T05:18:05.504Z,10.50
2022-10-17T05:20:33.107Z,10.50
2022-10-17T05:23:00.098Z,10.50
2022-10-17T05:25:26.707Z,10.50
2022-10-17T05:27:53.833Z,10.50
2022-10-17T05:30:20.557Z,10.40
2022-10-17T05:32:47.139Z,10.40
2022-10-17T05:35:13.735Z,10.40
2022-10-17T05:37:40.298Z,10.40
2022-10-17T05:40:07.580Z,10.40
2022-10-17T05:42:34.261Z,10.40
2022-10-17T05:45:00.934Z,10.40
2022-10-17T05:47:27.938Z,10.40
2022-10-17T05:49:54.844Z,10.40
2022-10-17T05:52:21.435Z,10.50
2022-10-17T05:54:48.014Z,10.40
2022-10-17T05:57:14.562Z,10.40
2022-10-17T05:59:41.119Z,10.40
2022-10-17T06:02:09.104Z,10.30
2022-10-17T06:04:35.691Z,10.30
2022-10-17T06:07:02.274Z,10.40
2022-10-17T06:09:28.992Z,10.30
2022-10-17T06:11:55.577Z,10.40
2022-10-17T06:14:22.338Z,10.30
2022-10-17T06:16:48.936Z,10.40
2022-10-17T06:19:15.587Z,10.40
2022-10-17T06:21:42.295Z,10.40
2022-10-17T06:24:08.879Z,10.40
2022-10-17T06:26:35.479Z,10.40
2022-10-17T06:29:02.138Z,10.50
2022-10-17T06:31:28.911Z,10.50
2022-10-17T06:33:55.527Z,10.50
2022-10-17T06:36:22.146Z,10.60
2022-10-17T06:38:48.719Z,10.60
2022-10-17T06:41:16.907Z,10.60
2022-10-17T06:43:45.039Z,10.60
2022-10-17T06:46:12.359Z,10.70
2022-10-17T06:48:39.070Z,10.90
2022-10-17T06:51:07.011Z,11.00
2022-10-17T06:53:34.649Z,11.10
2022-10-17T06:56:02.113Z,11.10
2022-10-17T06:58:34.361Z,11.30
2022-10-17T07:01:02.795Z,11.50
2022-10-17T07:03:30.138Z,11.60
2022-10-17T07:05:57.491Z,11.60
2022-10-17T07:08:24.345Z,11.80
2022-10-17T07:10:51.278Z,12.00
2022-10-17T07:13:19.413Z,12.20
2022-10-17T07:15:46.784Z,12.40
2022-10-17T07:18:13.829Z,12.50
2022-10-17T07:20:40.690Z,12.60
2022-10-17T07:23:07.644Z,12.80
2022-10-17T07:25:36.514Z,12.80
2022-10-17T07:28:05.963Z,12.90
2022-10-17T07:30:36.024Z,12.90
2022-10-17T07:33:02.615Z,13.00
2022-10-17T07:35:29.199Z,13.10
2022-10-17T07:37:55.786Z,13.10
2022-10-17T07:40:22.385Z,13.20
2022-10-17T07:42:48.997Z,13.20
2022-10-17T07:45:15.637Z,13.20
2022-10-17T07:47:42.587Z,13.30
2022-10-17T07:50:09.762Z,13.40
2022-10-17T07:52:36.437Z,13.50
2022-10-17T07:55:03.260Z,13.70
2022-10-17T07:57:29.844Z,13.80
2022-10-17T07:59:56.427Z,14.00
2022-10-17T08:02:27.120Z,14.10
2022-10-17T08:04:54.298Z,14.30
2022-10-17T08:07:26.836Z,14.40
2022-10-17T08:09:55.846Z,14.40
2022-10-17T08:12:22.501Z,14.60
2022-10-17T08:14:49.158Z,14.60
2022-10-17T08:17:15.747Z,14.70
2022-10-17T08:19:42.381Z,14.70
2022-10-17T08:22:09.038Z,14.70
2022-10-17T08:24:35.785Z,14.70
2022-10-17T08:27:02.518Z,14.90
2022-10-17T08:29:29.240Z,15.00
2022-10-17T08:32:00.200Z,15.20
2022-10-17T08:34:28.130Z,15.30
2022-10-17T08:36:54.831Z,15.40
2022-10-17T08:39:21.429Z,15.60
2022-10-17T08:41:56.547Z,15.70
2022-10-17T08:45:07.444Z,16.10
2022-10-17T08:47:40.661Z,16.30
2022-10-17T08:50:13.240Z,16.40
2022-10-17T08:52:46.885Z,16.50
2022-10-17T08:55:41.275Z,16.60
2022-10-17T08:58:14.930Z,16.80
2022-10-17T09:00:47.847Z,16.90
2022-10-17T09:04:08.351Z,17.10
2022-10-17T09:06:40.552Z,17.20
2022-10-17T09:09:31.764Z,17.40
2022-10-17T09:12:13.487Z,17.40
2022-10-17T09:14:48.969Z,17.50
2022-10-17T09:17:33.386Z,17.60
2022-10-17T09:20:08.387Z,17.90
2022-10-17T09:22:51.486Z,17.90
2022-10-17T09:25:22.991Z,18.10
2022-10-17T09:27:53.761Z,18.30
2022-10-17T09:30:45.500Z,18.50
2022-10-17T09:33:34.388Z,18.70
2022-10-17T09:36:10.675Z,18.80
2022-10-17T09:38:41.549Z,19.10
2022-10-17T09:41:42.785Z,19.20
2022-10-17T09:44:14.715Z,19.40
2022-10-17T09:46:51.844Z,19.60
2022-10-17T09:49:25.886Z,19.80
2022-10-17T09:51:52.631Z,19.80
2022-10-17T09:54:30.389Z,19.70
2022-10-17T09:57:20.426Z,19.80
2022-10-17T10:00:00.402Z,20.00
2022-10-17T10:02:29.550Z,20.10
2022-10-17T10:05:06.435Z,20.10
2022-10-17T10:07:37.088Z,20.20
2022-10-17T10:10:06.983Z,20.40
2022-10-17T10:12:36.657Z,20.60
2022-10-17T10:15:32.323Z,20.80
2022-10-17T10:17:58.957Z,20.80
2022-10-17T10:20:35.321Z,21.00
2022-10-17T10:23:20.195Z,20.90
2022-10-17T10:25:58.648Z,21.20
2022-10-17T10:28:31.728Z,21.30
2022-10-17T10:31:02.870Z,21.50
2022-10-17T10:33:31.837Z,21.70
2022-10-17T10:36:04.403Z,21.90
2022-10-17T10:38:33.927Z,22.20
2022-10-17T10:41:06.217Z,22.30
2022-10-17T10:43:40.789Z,22.50
2022-10-17T10:46:23.213Z,22.70
2022-10-17T10:48:56.178Z,22.90
2022-10-17T10:51:37.579Z,23.00
2022-10-17T10:54:15.757Z,23.10
2022-10-17T10:56:51.321Z,23.10
2022-10-17T10:59:34.739Z,23.40
2022-10-17T11:02:29.229Z,23.60
2022-10-17T11:04:58.630Z,23.60
2022-10-17T11:07:48.488Z,23.70
2022-10-17T11:10:25.539Z,23.60
2022-10-17T11:13:05.684Z,23.80
2022-10-17T11:15:53.640Z,23.80
2022-10-17T11:18:28.413Z,24.00
2022-10-17T11:21:00.490Z,24.10
2022-10-17T11:23:34.974Z,24.10
2022-10-17T11:26:07.053Z,24.00
2022-10-17T11:28:33.721Z,23.90
2022-10-17T11:31:07.285Z,24.10
2022-10-17T11:34:04.750Z,24.10
2022-10-17T11:36:41.945Z,24.10
2022-10-17T11:39:16.879Z,24.20
2022-10-17T11:41:46.555Z,24.20
2022-10-17T11:44:29.641Z,24.10
2022-10-17T11:47:22.339Z,24.10
2022-10-17T11:53:31.239Z,24.20
2022-10-17T11:56:00.255Z,24.20
2022-10-17T11:58:42.229Z,24.40
2022-10-17T12:01:21.023Z,24.50
2022-10-17T12:04:06.184Z,24.70
2022-10-17T12:06:35.746Z,24.80
2022-10-17T12:09:43.917Z,25.00
2022-10-17T12:12:10.525Z,24.80
2022-10-17T12:14:44.869Z,24.80
2022-10-17T12:17:23.479Z,24.80
2022-10-17T12:19:50.063Z,24.80
2022-10-17T12:22:23.115Z,24.80
2022-10-17T12:25:03.000Z,25.00
2022-10-17T12:27:42.157Z,24.90
2022-10-17T12:30:11.847Z,24.90
2022-10-17T12:33:07.473Z,24.80
2022-10-17T12:35:36.409Z,24.80
2022-10-17T12:38:21.082Z,24.80
2022-10-17T12:40:49.890Z,24.80
2022-10-17T12:43:16.414Z,24.80
2022-10-17T12:45:52.714Z,24.60
2022-10-17T12:48:34.787Z,24.60
2022-10-17T12:51:37.446Z,24.60
2022-10-17T12:54:15.820Z,24.70
2022-10-17T12:56:46.625Z,24.70
2022-10-17T12:59:28.787Z,24.70
2022-10-17T13:01:59.655Z,24.90
2022-10-17T13:04:27.832Z,25.00
2022-10-17T13:06:58.730Z,25.00
2022-10-17T13:09:36.410Z,25.10
2022-10-17T13:12:06.303Z,25.00
2022-10-17T13:14:34.728Z,24.90
2022-10-17T13:17:07.135Z,24.80
2022-10-17T13:19:43.348Z,24.70
2022-10-17T13:22:24.614Z,24.60
2022-10-17T13:24:53.086Z,24.50
2022-10-17T13:27:29.401Z,24.40
2022-10-17T13:29:58.674Z,24.30
2022-10-17T13:32:27.815Z,24.10
2022-10-17T13:35:06.859Z,24.00
2022-10-17T13:37:35.036Z,23.90
2022-10-17T13:40:11.327Z,23.70
2022-10-17T13:42:49.117Z,23.60
2022-10-17T13:45:21.702Z,23.50
2022-10-17T13:47:52.938Z,23.40
2022-10-17T13:50:43.625Z,23.30
2022-10-17T13:53:30.161Z,23.30
2022-10-17T13:56:28.793Z,23.20
2022-10-17T13:58:58.820Z,23.20
2022-10-17T14:01:27.425Z,23.10
2022-10-17T14:04:07.934Z,23.00
2022-10-17T14:06:47.640Z,23.00
2022-10-17T14:09:21.100Z,23.00
2022-10-17T14:12:16.979Z,22.90
2022-10-17T14:15:09.208Z,22.90
2022-10-17T14:17:36.010Z,22.90
2022-10-17T14:20:34.542Z,22.80
2022-10-17T14:23:17.378Z,22.70
2022-10-17T14:25:40.399Z,22.70
2022-10-17T14:28:12.989Z,22.60
2022-10-17T14:30:56.329Z,22.50
2022-10-17T14:33:29.663Z,22.50
2022-10-17T14:35:58.829Z,22.50
2022-10-17T14:38:26.075Z,22.50
2022-10-17T14:41:23.599Z,22.50
2022-10-17T14:43:57.780Z,22.60
2022-10-17T14:46:25.359Z,22.60
2022-10-17T14:49:02.075Z,22.60
2022-10-17T14:51:32.560Z,22.60
2022-10-17T14:54:26.456Z,22.50
2022-10-17T14:56:54.202Z,22.50
2022-10-17T14:59:35.474Z,22.50
2022-10-17T15:02:08.524Z,22.50
2022-10-17T15:04:35.071Z,22.40
2022-10-17T15:07:01.717Z,22.40
2022-10-17T15:09:28.499Z,22.30
2022-10-17T15:12:02.629Z,22.20
2022-10-17T15:14:29.297Z,22.10
2022-10-17T15:16:56.022Z,22.00
2022-10-17T15:19:22.683Z,22.00
2022-10-17T15:21:49.259Z,21.90
2022-10-17T15:24:15.834Z,21.80
2022-10-17T15:26:42.536Z,21.80
2022-10-17T15:29:15.772Z,21.60
2022-10-17T15:31:42.377Z,21.50
2022-10-17T15:34:08.967Z,21.40
2022-10-17T15:36:48.095Z,21.20
2022-10-17T15:39:14.688Z,21.10
2022-10-17T15:41:41.271Z,21.00
2022-10-17T15:44:07.882Z,20.90
2022-10-17T15:46:35.381Z,20.90
2022-10-17T15:49:04.646Z,20.70
2022-10-17T15:51:31.315Z,20.50
2022-10-17T15:53:57.965Z,20.40
2022-10-17T15:56:38.251Z,20.40
2022-10-17T15:59:16.922Z,20.20
2022-10-17T16:01:43.825Z,20.10
2022-10-17T16:04:12.562Z,19.90
2022-10-17T16:06:39.395Z,20.00
2022-10-17T16:09:05.996Z,19.90
2022-10-17T16:11:41.657Z,19.80
2022-10-17T16:14:12.579Z,19.70
2022-10-17T16:16:39.472Z,19.60
2022-10-17T16:19:06.415Z,19.60
2022-10-17T16:21:36.953Z,19.40
2022-10-17T16:24:04.503Z,19.30
2022-10-17T16:26:31.266Z,19.10
2022-10-17T16:28:58.033Z,18.90
2022-10-17T16:31:27.025Z,18.80
2022-10-17T16:33:55.031Z,18.70
2022-10-17T16:36:22.204Z,18.60
2022-10-17T16:38:49.619Z,18.50
2022-10-17T16:41:45.822Z,18.50
2022-10-17T16:44:18.050Z,18.30
2022-10-17T16:46:44.626Z,18.30
2022-10-17T16:49:11.202Z,18.20
2022-10-17T16:51:37.862Z,18.10
2022-10-17T16:54:04.483Z,18.00
2022-10-17T16:56:31.379Z,18.00
2022-10-17T16:58:58.192Z,17.80
2022-10-17T17:01:25.888Z,17.80
2022-10-17T17:03:53.461Z,17.70
2022-10-17T17:06:23.375Z,17.70
2022-10-17T17:08:50.618Z,17.70
2022-10-17T17:11:19.463Z,17.60
2022-10-17T17:13:46.244Z,17.50
2022-10-17T17:16:14.886Z,17.50
2022-10-17T17:18:42.035Z,17.50
2022-10-17T17:21:10.261Z,17.40
2022-10-17T17:23:39.592Z,17.30
2022-10-17T17:26:09.227Z,17.20
2022-10-17T17:28:36.365Z,17.10
2022-10-17T17:31:07.325Z,17.00
2022-10-17T17:33:33.909Z,17.00
2022-10-17T17:36:01.965Z,17.00
2022-10-17T17:38:29.825Z,16.90
2022-10-17T17:40:56.732Z,16.80
2022-10-17T17:43:23.430Z,16.70
2022-10-17T17:45:50.498Z,16.60
2022-10-17T17:48:17.197Z,16.60
2022-10-17T17:50:44.638Z,16.60
2022-10-17T17:53:13.037Z,16.50
2022-10-17T17:55:39.831Z,16.50
2022-10-17T17:58:06.689Z,16.40
2022-10-17T18:00:33.535Z,16.30
2022-10-17T18:03:00.431Z,16.30
2022-10-17T18:05:27.579Z,16.20
2022-10-17T18:07:54.163Z,16.20
2022-10-17T18:10:20.798Z,16.20
2022-10-17T18:12:47.457Z,16.10
2022-10-17T18:15:14.685Z,16.10
2022-10-17T18:17:41.626Z,16.00
2022-10-17T18:20:08.812Z,15.90
2022-10-17T18:22:35.460Z,15.90
2022-10-17T18:25:02.268Z,15.90
2022-10-17T18:27:28.861Z,15.80
2022-10-17T18:29:55.510Z,15.80
2022-10-17T18:32:22.086Z,15.70
2022-10-17T18:34:48.669Z,15.60
2022-10-17T18:37:15.259Z,15.60
2022-10-17T18:39:41.848Z,15.60
2022-10-17T18:42:08.656Z,15.50
2022-10-17T18:44:35.267Z,15.50
2022-10-17T18:47:04.129Z,15.40
2022-10-17T18:49:31.387Z,15.40
2022-10-17T18:51:58.001Z,15.30
2022-10-17T18:54:24.617Z,15.30
2022-10-17T18:56:52.835Z,15.30
2022-10-17T18:59:20.560Z,15.30
2022-10-17T19:01:47.626Z,15.30
2022-10-17T19:04:14.592Z,15.20
2022-10-17T19:06:41.478Z,15.20
2022-10-17T19:09:10.899Z,15.20
2022-10-17T19:11:38.514Z,15.10
2022-10-17T19:14:07.514Z,15.00
2022-10-17T19:16:36.366Z,15.00
2022-10-17T19:19:13.648Z,15.00
2022-10-17T19:21:40.747Z,14.90
2022-10-17T19:24:12.038Z,14.90
2022-10-17T19:26:39.500Z,14.80
2022-10-17T19:29:06.609Z,14.80
2022-10-17T19:31:34.777Z,14.80
2022-10-17T19:34:01.674Z,14.70
2022-10-17T19:36:33.255Z,14.70
2022-10-17T19:39:05.938Z,14.70
2022-10-17T19:41:33.141Z,14.60
2022-10-17T19:44:00.429Z,14.60
2022-10-17T19:46:28.323Z,14.60
2022-10-17T19:48:55.214Z,14.60
2022-10-17T19:51:23.053Z,14.50
2022-10-17T19:53:50.214Z,14.50
2022-10-17T19:56:16.825Z,14.50
2022-10-17T19:58:43.410Z,14.50
2022-10-17T20:01:11.520Z,14.50
2022-10-17T20:03:38.164Z,14.50
2022-10-17T20:06:04.948Z,14.40
2022-10-17T20:08:31.540Z,14.30
2022-10-17T20:11:06.367Z,14.30
2022-10-17T20:13:35.748Z,14.30
2022-10-17T20:16:03.220Z,14.30
2022-10-17T20:18:30.054Z,14.30
2022-10-17T20:21:01.761Z,14.30
2022-10-17T20:23:28.328Z,14.30
2022-10-17T20:26:06.698Z,14.20
2022-10-17T20:28:40.351Z,14.20
2022-10-17T20:31:08.777Z,14.20
2022-10-17T20:33:35.448Z,14.20
2022-10-17T20:36:05.993Z,14.10
2022-10-17T20:38:32.610Z,14.10
2022-10-17T20:41:09.630Z,14.10
2022-10-17T20:43:37.042Z,14.10
2022-10-17T20:46:21.893Z,14.10
2022-10-17T20:48:53.868Z,14.10
2022-10-17T20:51:21.122Z,14.00
2022-10-17T20:53:48.580Z,14.00
2022-10-17T20:56:24.038Z,13.90
2022-10-17T20:58:56.166Z,13.90
2022-10-17T21:01:23.827Z,13.90
2022-10-17T21:03:51.074Z,13.90
2022-10-17T21:06:18.434Z,13.80
2022-10-17T21:08:46.667Z,13.70
2022-10-17T21:11:18.830Z,13.70
2022-10-17T21:13:46.791Z,13.70
2022-10-17T21:16:18.529Z,13.70
2022-10-17T21:18:45.526Z,13.70
2022-10-17T21:21:16.021Z,13.60
2022-10-17T21:23:45.234Z,13.60
2022-10-17T21:26:13.178Z,13.60
2022-10-17T21:28:41.085Z,13.60
2022-10-17T21:31:28.189Z,13.60
2022-10-17T21:34:01.600Z,13.60
2022-10-17T21:36:28.469Z,13.60
2022-10-17T21:38:56.330Z,13.50
2022-10-17T21:41:27.985Z,13.50
2022-10-17T21:44:00.841Z,13.40
2022-10-17T21:46:28.544Z,13.40
2022-10-17T21:48:55.186Z,13.30
2022-10-17T21:51:23.766Z,13.40
2022-10-17T21:53:51.957Z,13.40
2022-10-17T21:56:20.829Z,13.30
2022-10-17T21:58:48.889Z,13.30
2022-10-17T22:01:20.950Z,13.30
2022-10-17T22:03:50.691Z,13.30
2022-10-17T22:09:13.057Z,13.30
2022-10-17T22:11:39.712Z,13.20
2022-10-17T22:14:10.663Z,13.20
2022-10-17T22:16:38.617Z,13.20
2022-10-17T22:19:06.867Z,13.20
2022-10-17T22:21:35.953Z,13.20
2022-10-17T22:24:06.252Z,13.10
2022-10-17T22:26:34.662Z,13.10
2022-10-17T22:29:01.702Z,13.20
2022-10-17T22:31:28.343Z,13.10
2022-10-17T22:33:55.779Z,13.10
2022-10-17T22:36:22.426Z,13.00
2022-10-17T22:38:49.026Z,13.00
2022-10-17T22:41:15.875Z,13.00
2022-10-17T22:43:42.447Z,13.00
2022-10-17T22:46:12.145Z,12.90
2022-10-17T22:48:38.971Z,12.90
2022-10-17T22:51:05.589Z,12.90
2022-10-17T22:53:32.184Z,12.90
2022-10-17T22:56:00.952Z,12.90
2022-10-17T22:58:29.030Z,12.90
2022-10-17T23:00:56.371Z,12.80
2022-10-17T23:03:24.463Z,12.80
2022-10-17T23:05:51.263Z,12.80
2022-10-17T23:08:18.457Z,12.80
2022-10-17T23:10:46.358Z,12.80
2022-10-17T23:13:14.249Z,12.80
2022-10-17T23:15:41.319Z,12.70
2022-10-17T23:18:08.067Z,12.70
2022-10-17T23:20:34.836Z,12.70
2022-10-17T23:23:01.423Z,12.80
2022-10-17T23:25:28.285Z,12.70
2022-10-17T23:27:55.080Z,12.60
2022-10-17T23:30:21.649Z,12.60
2022-10-17T23:32:48.286Z,12.60
2022-10-17T23:35:15.126Z,12.60
2022-10-17T23:37:41.869Z,12.50
2022-10-17T23:40:09.341Z,12.50
2022-10-17T23:42:35.979Z,12.50
2022-10-17T23:45:02.996Z,12.50
2022-10-17T23:47:29.853Z,12.50
2022-10-17T23:49:57.174Z,12.50
2022-10-17T23:52:23.852Z,12.50
2022-10-17T23:54:50.464Z,12.40
2022-10-17T23:57:17.185Z,12.30
2022-10-17T23:59:43.805Z,12.30
